aviador You're here:

PAVC Decoded Metar

KING COVE in AK, USA
Report Time2018-05-23 06:56:00
UTC Time2018-05-23 07:01:30
Flight Rules mvfr MVFR
WindCalm
Visibility9999 m
Phenomena:N/A
Clouds:Overcast 019 Hf
Expected CloudBase > 1,600 ft AGL from Temp-Dew spread
Ceiling1,900 ft
Temp06°C (ISA -9)
Dew Point02°C (76% RH)
AAT4.3°C
QNH1006 hPa
Density Alt-558 ft
Elevation154 ft
Report Wrong Elevation
Raw Report
PAVC 230656Z AUTO 00000KT 10SM OVC019 06/02 A2970 RMK AO2 SLP061
T00560022=

Extra information for PAVC:More info

Metar Taf Metar & Taf Last 4 Metars F.Rules Stats Wind Profile Meteogram Temp Stats Airport Information Weather charts Add Link Nearby VenuesMetar ALERT Operation Metar Decoded Social comments

AIRNAV info for PAVC